Time;durP1;ratioP1;P1;durP2;ratioP2;P2;SDS_P1;SDS_P2;PMS_P1;PMS_P2;Temp;Humidity;BMP_temperature;BMP_pressure;BME280_temperature;BME280_humidity;BME280_pressure;Samples;Min_cycle;Max_cycle;Signal;HPM_P1;HPM_P2
2022/08/01 00:00:13;;;;;;;4.05;1.83;;;23.90;99.90;;;;;;5051822;28;20029;-73
2022/08/01 00:02:40;;;;;;;3.50;2.13;;;23.90;99.90;;;;;;5047300;28;20075;-72
2022/08/01 00:05:08;;;;;;;5.65;2.42;;;23.90;99.90;;;;;;5032297;28;20056;-73
2022/08/01 00:07:34;;;;;;;2.17;1.98;;;23.90;99.90;;;;;;5037154;28;20044;-72
2022/08/01 00:10:01;;;;;;;2.35;2.15;;;23.80;99.90;;;;;;5050311;28;20099;-72
2022/08/01 00:12:26;;;;;;;2.00;1.90;;;23.80;99.90;;;;;;5041820;28;20017;-72
2022/08/01 00:14:52;;;;;;;2.70;2.38;;;23.80;99.90;;;;;;5049120;28;20456;-73
2022/08/01 00:17:17;;;;;;;3.95;1.98;;;23.80;99.90;;;;;;5042881;28;20025;-73
2022/08/01 00:19:43;;;;;;;2.80;2.00;;;23.80;99.90;;;;;;5047004;28;20024;-73
2022/08/01 00:22:09;;;;;;;2.90;1.88;;;23.80;99.90;;;;;;5043431;28;20020;-72
2022/08/01 00:24:34;;;;;;;2.45;1.90;;;23.80;99.90;;;;;;5046634;28;20029;-73
2022/08/01 00:27:00;;;;;;;2.78;2.30;;;23.70;99.90;;;;;;5041318;28;20021;-72
2022/08/01 00:29:26;;;;;;;2.20;2.00;;;23.70;99.90;;;;;;5045264;28;20033;-72
2022/08/01 00:31:52;;;;;;;2.17;1.98;;;23.80;99.90;;;;;;5047974;28;20373;-72
2022/08/01 00:34:18;;;;;;;2.58;2.10;;;23.80;99.90;;;;;;5038616;28;20487;-72
2022/08/01 00:36:43;;;;;;;2.70;1.85;;;23.80;99.90;;;;;;5036634;28;20103;-72
2022/08/01 00:39:09;;;;;;;1.98;1.77;;;23.80;99.90;;;;;;5042953;28;20043;-72
2022/08/01 00:41:36;;;;;;;2.83;1.98;;;23.80;99.90;;;;;;5044031;28;20519;-72
2022/08/01 00:44:04;;;;;;;2.55;1.80;;;23.90;99.90;;;;;;5038536;28;20029;-72
2022/08/01 00:46:30;;;;;;;3.20;2.05;;;24.00;99.90;;;;;;5035333;28;20084;-72
2022/08/01 00:48:56;;;;;;;2.83;1.98;;;24.00;99.90;;;;;;5042357;28;20471;-72
2022/08/01 00:51:22;;;;;;;4.90;2.15;;;24.00;99.90;;;;;;5047657;28;20061;-72
2022/08/01 00:53:51;;;;;;;2.20;2.00;;;24.00;99.90;;;;;;5042212;28;20060;-72
2022/08/01 00:56:18;;;;;;;2.20;2.00;;;24.00;99.90;;;;;;5032654;28;20083;-72
2022/08/01 00:58:44;;;;;;;3.78;2.08;;;24.00;99.90;;;;;;5042162;28;20013;-72
2022/08/01 01:01:09;;;;;;;3.72;2.10;;;24.00;99.90;;;;;;5046259;28;20086;-72
2022/08/01 01:03:35;;;;;;;4.20;2.05;;;24.00;99.90;;;;;;5043724;28;20072;-72
2022/08/01 01:06:12;;;;;;;2.65;1.90;;;24.00;99.90;;;;;;5030816;28;20056;-72
2022/08/01 01:08:53;;;;;;;2.53;1.90;;;24.00;99.90;;;;;;5036141;28;20075;-72
2022/08/01 01:11:29;;;;;;;5.68;1.80;;;24.00;99.90;;;;;;5033521;28;20044;-74
2022/08/01 01:14:04;;;;;;;1.95;1.80;;;24.00;99.90;;;;;;5041908;28;20383;-72
2022/08/01 01:16:32;;;;;;;2.40;1.73;;;24.00;99.90;;;;;;5047515;28;20029;-72
2022/08/01 01:19:02;;;;;;;2.17;1.85;;;24.00;99.90;;;;;;5041831;28;20025;-72
2022/08/01 01:21:49;;;;;;;3.63;2.10;;;24.00;99.90;;;;;;5047373;28;20029;-71
2022/08/01 01:24:27;;;;;;;1.92;1.77;;;24.00;99.90;;;;;;5035934;28;20025;-72
2022/08/01 01:27:11;;;;;;;4.25;1.90;;;24.00;99.90;;;;;;5040491;28;20056;-72
2022/08/01 01:29:49;;;;;;;2.70;2.20;;;24.00;99.90;;;;;;5044842;28;20044;-73
2022/08/01 01:32:14;;;;;;;2.97;1.83;;;24.00;99.90;;;;;;5046294;28;20115;-73
2022/08/01 01:34:44;;;;;;;3.15;1.90;;;24.00;99.90;;;;;;5038618;28;20108;-73
2022/08/01 01:37:15;;;;;;;3.40;1.98;;;24.00;99.90;;;;;;5039967;28;20515;-73
2022/08/01 01:39:42;;;;;;;2.33;2.13;;;24.00;99.90;;;;;;5049275;28;20383;-73
2022/08/01 01:42:08;;;;;;;2.40;2.20;;;23.90;99.90;;;;;;5047055;28;20076;-72
2022/08/01 01:44:37;;;;;;;3.83;2.70;;;23.90;99.90;;;;;;5049555;28;20107;-72
2022/08/01 01:47:03;;;;;;;2.40;1.95;;;23.90;99.90;;;;;;5046738;28;20030;-72
2022/08/01 01:49:30;;;;;;;2.05;1.90;;;23.80;99.90;;;;;;5048829;28;20429;-72
2022/08/01 01:51:58;;;;;;;2.42;1.80;;;23.80;99.90;;;;;;5048644;28;20525;-72
2022/08/01 01:54:28;;;;;;;2.72;1.98;;;23.80;99.90;;;;;;5048122;28;20033;-72
2022/08/01 01:56:58;;;;;;;7.07;2.30;;;23.80;99.90;;;;;;5044162;28;20372;-72
2022/08/01 01:59:28;;;;;;;2.45;2.10;;;23.80;99.90;;;;;;5052851;28;20055;-72
2022/08/01 02:01:56;;;;;;;2.08;1.95;;;23.80;99.90;;;;;;5049514;28;20426;-72
2022/08/01 02:04:24;;;;;;;2.00;1.80;;;23.80;99.90;;;;;;5046127;28;20104;-72
2022/08/01 02:06:51;;;;;;;2.60;2.20;;;23.80;99.90;;;;;;5037574;28;20277;-72
2022/08/01 02:09:19;;;;;;;2.13;1.90;;;23.80;99.90;;;;;;5041054;28;20555;-72
2022/08/01 02:11:47;;;;;;;2.30;2.10;;;23.80;99.90;;;;;;5039464;28;20111;-72
2022/08/01 02:14:15;;;;;;;2.88;2.08;;;23.80;99.90;;;;;;5046174;28;20387;-72
2022/08/01 02:16:44;;;;;;;2.45;1.80;;;23.80;99.90;;;;;;5050203;28;20029;-72
2022/08/01 02:19:11;;;;;;;3.85;2.10;;;23.70;99.90;;;;;;5045635;28;20086;-72
2022/08/01 02:21:47;;;;;;;2.15;1.95;;;23.80;99.90;;;;;;5050144;28;20495;-72
2022/08/01 02:24:17;;;;;;;2.33;2.00;;;23.70;99.90;;;;;;5038218;28;20034;-72
2022/08/01 02:26:47;;;;;;;3.38;2.30;;;23.70;99.90;;;;;;5045863;28;20051;-72
2022/08/01 02:29:22;;;;;;;2.88;2.10;;;23.70;99.90;;;;;;5045663;28;20372;-72
2022/08/01 02:31:50;;;;;;;2.55;1.90;;;23.70;99.90;;;;;;5050428;28;20552;-72
2022/08/01 02:34:18;;;;;;;3.05;2.17;;;23.70;99.90;;;;;;5040673;28;20029;-72
2022/08/01 02:36:46;;;;;;;2.17;2.00;;;23.60;99.90;;;;;;5037531;28;20025;-72
2022/08/01 02:39:14;;;;;;;2.63;2.05;;;23.50;99.90;;;;;;5045676;28;20060;-72
2022/08/01 02:41:43;;;;;;;5.50;2.00;;;23.50;99.90;;;;;;5049880;28;20119;-72
2022/08/01 02:44:13;;;;;;;5.00;2.20;;;23.50;99.90;;;;;;5044344;28;20064;-72
2022/08/01 02:46:41;;;;;;;2.60;2.05;;;23.50;99.90;;;;;;5049733;28;20155;-72
2022/08/01 02:49:10;;;;;;;7.82;2.00;;;23.40;99.90;;;;;;5036297;28;20061;-72
2022/08/01 02:51:37;;;;;;;2.88;1.90;;;23.40;99.90;;;;;;5047601;28;20033;-72
2022/08/01 02:54:06;;;;;;;2.42;2.00;;;23.30;99.90;;;;;;5042003;28;20501;-72
2022/08/01 02:56:37;;;;;;;3.13;2.55;;;23.30;99.90;;;;;;5035804;28;20037;-72
2022/08/01 02:59:05;;;;;;;2.55;2.30;;;23.20;99.90;;;;;;5044201;28;20013;-72
2022/08/01 03:01:33;;;;;;;3.03;2.03;;;23.20;99.90;;;;;;5049630;28;20032;-72
2022/08/01 03:04:00;;;;;;;3.47;2.17;;;23.20;99.90;;;;;;5042341;28;20396;-72
2022/08/01 03:06:26;;;;;;;3.08;2.08;;;23.20;99.90;;;;;;5036295;28;20116;-72
2022/08/01 03:08:54;;;;;;;7.28;2.38;;;23.10;99.90;;;;;;5044022;28;20052;-72
2022/08/01 03:11:22;;;;;;;4.03;2.22;;;23.10;99.90;;;;;;5049432;28;20033;-72
2022/08/01 03:13:50;;;;;;;4.07;2.22;;;23.10;99.90;;;;;;5043830;28;20025;-72
2022/08/01 03:16:17;;;;;;;3.72;2.10;;;23.20;99.90;;;;;;5034635;28;20022;-72
2022/08/01 03:18:45;;;;;;;2.92;2.00;;;23.10;99.90;;;;;;5042585;28;20048;-72
2022/08/01 03:21:13;;;;;;;2.83;2.40;;;23.10;99.90;;;;;;5049952;28;20018;-72
2022/08/01 03:23:41;;;;;;;3.55;2.15;;;23.10;99.90;;;;;;5041526;28;20053;-72
2022/08/01 03:26:08;;;;;;;5.22;2.33;;;23.00;99.90;;;;;;5033433;28;20633;-72
2022/08/01 03:28:37;;;;;;;5.20;2.25;;;23.00;99.90;;;;;;5037224;28;20061;-72
2022/08/01 03:31:03;;;;;;;3.92;2.58;;;23.00;99.90;;;;;;5033328;28;20060;-72
2022/08/01 03:33:29;;;;;;;4.30;2.20;;;23.00;99.90;;;;;;5045670;28;20509;-72
2022/08/01 03:35:56;;;;;;;2.42;2.20;;;23.00;99.90;;;;;;5033393;28;20072;-72
2022/08/01 03:38:23;;;;;;;3.67;2.60;;;23.00;99.90;;;;;;5041707;28;20077;-72
2022/08/01 03:40:58;;;;;;;3.92;2.10;;;23.00;99.90;;;;;;5050992;28;20021;-71
2022/08/01 03:43:42;;;;;;;2.50;2.30;;;23.00;99.90;;;;;;5040959;28;20025;-72
2022/08/01 03:46:20;;;;;;;2.88;2.22;;;23.00;99.90;;;;;;5047291;28;20021;-72
2022/08/01 03:48:48;;;;;;;2.85;2.10;;;22.90;99.90;;;;;;5043109;28;20259;-71
2022/08/01 03:51:15;;;;;;;2.78;1.90;;;22.80;99.90;;;;;;5048418;28;20033;-72
2022/08/01 03:53:44;;;;;;;3.97;2.10;;;22.80;99.90;;;;;;5043181;28;20029;-71
2022/08/01 03:56:11;;;;;;;1.92;1.70;;;22.80;99.90;;;;;;5043957;28;20029;-72
2022/08/01 03:58:40;;;;;;;2.60;2.35;;;22.80;99.90;;;;;;5041554;28;20025;-72
2022/08/01 04:01:08;;;;;;;3.08;2.13;;;22.70;99.90;;;;;;5048710;28;20048;-72
2022/08/01 04:03:34;;;;;;;2.95;2.17;;;22.70;99.90;;;;;;5039968;28;20021;-71
2022/08/01 04:06:04;;;;;;;4.18;2.10;;;22.70;99.90;;;;;;5031535;28;20086;-72
2022/08/01 04:08:40;;;;;;;4.80;2.20;;;22.70;99.90;;;;;;5041421;28;20029;-72
2022/08/01 04:11:08;;;;;;;8.75;2.67;;;22.70;99.90;;;;;;5048401;28;20095;-72
2022/08/01 04:13:33;;;;;;;2.83;2.30;;;22.70;99.90;;;;;;5036488;28;20028;-72
2022/08/01 04:16:00;;;;;;;2.63;2.08;;;22.70;99.90;;;;;;5032848;28;20025;-72
2022/08/01 04:18:26;;;;;;;2.60;2.40;;;22.80;99.90;;;;;;5041652;28;20021;-72
2022/08/01 04:20:51;;;;;;;2.33;2.10;;;22.80;99.90;;;;;;5050557;28;20025;-72
2022/08/01 04:23:24;;;;;;;6.70;2.20;;;22.80;99.90;;;;;;5039108;28;20388;-72
2022/08/01 04:25:51;;;;;;;4.18;2.85;;;22.70;99.90;;;;;;5045268;28;20030;-72
2022/08/01 04:28:19;;;;;;;3.58;2.42;;;22.80;99.90;;;;;;5038940;28;20546;-72
2022/08/01 04:30:48;;;;;;;3.13;2.13;;;22.80;99.90;;;;;;5049756;28;20036;-72
2022/08/01 04:33:17;;;;;;;4.10;2.22;;;22.90;99.90;;;;;;5044744;28;20033;-72
2022/08/01 04:35:46;;;;;;;5.85;2.42;;;22.90;99.90;;;;;;5031196;28;20108;-72
2022/08/01 04:38:16;;;;;;;2.28;2.08;;;22.90;99.90;;;;;;5040309;28;20052;-72
2022/08/01 04:40:45;;;;;;;3.55;2.40;;;22.90;99.90;;;;;;5031240;28;20026;-72
2022/08/01 04:43:11;;;;;;;3.97;2.38;;;22.90;99.90;;;;;;5041456;28;20056;-72
2022/08/01 04:45:38;;;;;;;3.50;2.55;;;22.90;99.90;;;;;;5030752;28;20104;-72
2022/08/01 04:48:06;;;;;;;2.45;2.25;;;23.00;99.90;;;;;;5042529;28;20021;-72
2022/08/01 04:50:32;;;;;;;2.88;2.00;;;23.00;99.90;;;;;;5031336;28;20096;-72
2022/08/01 04:52:58;;;;;;;2.50;2.10;;;23.00;99.90;;;;;;5038368;28;20480;-72
2022/08/01 04:55:23;;;;;;;3.33;2.05;;;23.10;99.90;;;;;;5048917;28;20029;-72
2022/08/01 04:57:49;;;;;;;2.30;2.10;;;23.10;99.90;;;;;;5036867;28;20028;-72
2022/08/01 05:00:18;;;;;;;3.10;2.22;;;23.20;99.90;;;;;;5049582;28;20067;-72
2022/08/01 05:02:44;;;;;;;3.65;2.30;;;23.20;99.90;;;;;;5047366;28;20136;-73
2022/08/01 05:05:10;;;;;;;2.22;2.03;;;23.20;99.90;;;;;;5029786;28;20030;-72
2022/08/01 05:07:36;;;;;;;2.30;2.10;;;23.30;99.90;;;;;;5045421;28;20032;-73
2022/08/01 05:10:04;;;;;;;2.85;2.30;;;23.30;99.90;;;;;;5035848;28;20026;-73
2022/08/01 05:12:31;;;;;;;2.35;1.95;;;23.40;99.90;;;;;;5040244;28;20448;-72
2022/08/01 05:14:58;;;;;;;3.28;2.20;;;23.40;99.90;;;;;;5051911;28;20368;-72
2022/08/01 05:17:23;;;;;;;2.05;1.95;;;23.50;99.90;;;;;;5044347;28;20036;-72
2022/08/01 05:19:49;;;;;;;3.08;2.25;;;23.50;99.90;;;;;;5052126;28;20020;-72
2022/08/01 05:22:15;;;;;;;5.85;2.30;;;23.60;99.90;;;;;;5046860;28;20095;-72
2022/08/01 05:24:40;;;;;;;4.28;2.13;;;23.60;99.90;;;;;;5050964;28;20075;-72
2022/08/01 05:27:10;;;;;;;7.85;2.30;;;23.70;99.90;;;;;;5043686;28;20476;-72
2022/08/01 05:29:35;;;;;;;8.77;1.95;;;23.70;99.90;;;;;;5050170;28;20075;-73
2022/08/01 05:32:02;;;;;;;2.70;2.08;;;23.80;99.90;;;;;;5049467;28;20057;-74
2022/08/01 05:34:28;;;;;;;3.63;2.20;;;23.80;99.90;;;;;;5040218;28;20029;-72
2022/08/01 05:36:54;;;;;;;5.65;2.00;;;23.90;99.90;;;;;;5039946;28;20434;-74
2022/08/01 05:39:20;;;;;;;4.60;2.15;;;23.90;99.90;;;;;;5046582;28;20498;-73
2022/08/01 05:41:45;;;;;;;4.50;2.40;;;23.90;99.90;;;;;;5050111;28;20029;-75
2022/08/01 05:44:11;;;;;;;3.78;2.25;;;24.00;99.90;;;;;;5046569;28;20029;-74
2022/08/01 05:46:37;;;;;;;3.17;2.35;;;24.10;99.90;;;;;;5051232;28;20479;-73
2022/08/01 05:49:04;;;;;;;4.50;1.90;;;24.10;99.90;;;;;;5045587;28;20541;-74
2022/08/01 05:51:30;;;;;;;4.55;2.33;;;24.20;99.90;;;;;;5050818;28;20599;-74
2022/08/01 05:53:56;;;;;;;5.10;2.00;;;24.20;99.90;;;;;;5045479;28;20039;-73
2022/08/01 05:56:22;;;;;;;4.53;2.42;;;24.30;99.90;;;;;;5046872;28;20537;-73
2022/08/01 05:58:49;;;;;;;3.63;2.05;;;24.30;99.90;;;;;;5045167;28;20021;-73
2022/08/01 06:01:15;;;;;;;2.03;1.83;;;24.40;99.90;;;;;;5050679;28;20104;-73
2022/08/01 06:03:41;;;;;;;3.97;1.95;;;24.40;99.90;;;;;;5041080;28;20029;-72
2022/08/01 06:06:07;;;;;;;2.42;1.98;;;24.50;99.90;;;;;;5050828;28;20036;-72
2022/08/01 06:08:32;;;;;;;3.83;2.00;;;24.50;99.90;;;;;;5045189;28;20057;-72
2022/08/01 06:10:58;;;;;;;4.10;1.92;;;24.60;99.90;;;;;;5051643;28;20091;-71
2022/08/01 06:13:24;;;;;;;9.07;2.30;;;24.70;99.90;;;;;;5042723;28;20428;-71
2022/08/01 06:15:50;;;;;;;4.55;2.35;;;24.70;99.90;;;;;;5034805;28;20026;-71
2022/08/01 06:18:16;;;;;;;6.50;2.70;;;24.80;99.90;;;;;;5041469;28;20074;-72
2022/08/01 06:20:42;;;;;;;3.72;2.00;;;24.80;99.90;;;;;;5052119;28;20032;-72
2022/08/01 06:23:08;;;;;;;3.95;1.70;;;24.80;99.90;;;;;;5042694;28;20021;-73
2022/08/01 06:25:34;;;;;;;3.42;2.25;;;24.90;99.90;;;;;;5048755;28;20025;-73
2022/08/01 06:28:00;;;;;;;11.10;2.25;;;25.00;99.90;;;;;;5041239;28;20013;-73
2022/08/01 06:30:26;;;;;;;2.92;1.83;;;25.00;99.90;;;;;;5053957;28;20059;-78
2022/08/01 06:32:52;;;;;;;2.45;1.80;;;25.10;99.90;;;;;;5047207;28;20111;-74
2022/08/01 06:35:18;;;;;;;3.80;2.08;;;25.20;99.90;;;;;;5032236;28;20163;-79
2022/08/01 06:37:46;;;;;;;3.42;1.90;;;25.20;99.90;;;;;;5037614;28;20603;-74
2022/08/01 06:40:13;;;;;;;1.75;1.65;;;25.40;99.90;;;;;;5013735;28;20054;-74
2022/08/01 06:42:39;;;;;;;3.03;1.50;;;25.40;99.90;;;;;;5034290;28;20037;-74
2022/08/01 06:45:06;;;;;;;2.30;1.98;;;25.50;99.90;;;;;;5052635;28;20029;-74
2022/08/01 06:47:32;;;;;;;3.10;1.90;;;25.50;99.90;;;;;;5042805;28;20104;-73
2022/08/01 06:49:58;;;;;;;3.58;2.30;;;25.60;99.90;;;;;;5051611;28;20588;-74
2022/08/01 06:52:24;;;;;;;1.95;1.80;;;25.60;99.90;;;;;;5043597;28;20028;-74
2022/08/01 06:54:50;;;;;;;3.47;1.95;;;25.70;99.90;;;;;;5049388;28;20040;-74
2022/08/01 06:57:16;;;;;;;2.85;2.15;;;25.80;99.90;;;;;;5040829;28;20029;-74
2022/08/01 06:59:42;;;;;;;6.07;2.58;;;25.90;99.90;;;;;;5049239;28;20086;-74
2022/08/01 07:02:07;;;;;;;7.47;2.10;;;25.90;99.60;;;;;;5047936;28;20082;-74
2022/08/01 07:04:34;;;;;;;4.70;1.90;;;26.00;99.50;;;;;;5037999;28;20025;-74
2022/08/01 07:07:00;;;;;;;3.72;2.05;;;26.10;98.50;;;;;;5038074;28;20029;-73
2022/08/01 07:09:26;;;;;;;3.60;1.95;;;26.10;98.50;;;;;;5045486;28;20032;-74
2022/08/01 07:11:52;;;;;;;2.13;1.92;;;26.20;98.50;;;;;;5047759;28;20415;-74
2022/08/01 07:14:18;;;;;;;2.47;1.75;;;26.30;98.00;;;;;;5044418;28;20021;-74
2022/08/01 07:16:44;;;;;;;7.72;2.10;;;26.40;98.30;;;;;;5048769;28;20483;-74
2022/08/01 07:19:11;;;;;;;2.60;1.63;;;26.50;98.00;;;;;;5044533;28;20445;-74
2022/08/01 07:21:38;;;;;;;1.75;1.50;;;26.50;97.50;;;;;;5049172;28;20091;-73
2022/08/01 07:24:04;;;;;;;1.73;1.63;;;26.60;97.50;;;;;;5043800;28;20028;-73
2022/08/01 07:26:30;;;;;;;5.13;2.65;;;26.60;97.50;;;;;;5045376;28;20063;-75
2022/08/01 07:28:56;;;;;;;2.20;2.00;;;26.70;95.00;;;;;;5043589;28;20017;-73
2022/08/01 07:31:22;;;;;;;2.78;1.77;;;26.90;94.50;;;;;;5047413;28;20042;-74
2022/08/01 07:33:49;;;;;;;3.45;1.83;;;27.00;94.10;;;;;;5041730;28;20495;-74
2022/08/01 07:36:18;;;;;;;5.53;2.35;;;27.00;94.70;;;;;;5032885;28;20249;-73
2022/08/01 07:38:44;;;;;;;3.33;1.92;;;27.10;94.80;;;;;;5043229;28;20106;-73
2022/08/01 07:41:10;;;;;;;6.47;2.08;;;27.20;97.00;;;;;;5047610;28;20029;-74
2022/08/01 07:43:36;;;;;;;4.18;2.88;;;27.40;97.30;;;;;;5042086;28;20498;-73
2022/08/01 07:46:03;;;;;;;4.88;2.60;;;27.50;99.30;;;;;;5049614;28;20049;-74
2022/08/01 07:48:28;;;;;;;7.35;2.38;;;27.60;98.50;;;;;;5042796;28;20052;-74
2022/08/01 07:50:55;;;;;;;11.50;3.05;;;27.80;99.70;;;;;;5050394;28;20451;-74
2022/08/01 07:53:21;;;;;;;16.75;3.42;;;27.70;99.90;;;;;;5039999;28;20530;-73
2022/08/01 07:55:47;;;;;;;10.68;2.70;;;27.70;99.90;;;;;;5045752;28;20029;-73
2022/08/01 07:58:13;;;;;;;11.73;2.50;;;27.70;99.90;;;;;;5041021;28;20075;-73
2022/08/01 08:00:39;;;;;;;10.02;3.20;;;27.60;99.50;;;;;;5051323;28;20484;-73
2022/08/01 08:03:05;;;;;;;7.97;2.42;;;27.60;99.40;;;;;;5046268;28;20423;-73
2022/08/01 08:05:32;;;;;;;3.22;2.50;;;27.60;98.80;;;;;;5031973;28;20472;-74
2022/08/01 08:07:57;;;;;;;7.45;2.10;;;27.60;98.60;;;;;;5038874;28;20018;-74
2022/08/01 08:10:23;;;;;;;4.50;2.70;;;27.60;99.10;;;;;;5031695;28;20407;-74
2022/08/01 08:12:49;;;;;;;11.02;2.28;;;27.70;98.80;;;;;;5037419;28;20041;-73
2022/08/01 08:15:15;;;;;;;6.93;2.30;;;27.80;97.40;;;;;;5051541;28;20035;-74
2022/08/01 08:17:41;;;;;;;3.40;2.40;;;27.80;98.20;;;;;;5042432;28;20029;-74
2022/08/01 08:20:08;;;;;;;9.13;2.45;;;27.90;98.30;;;;;;5032197;28;20036;-74
2022/08/01 08:22:34;;;;;;;3.50;2.38;;;27.90;97.30;;;;;;5036648;28;20030;-74
2022/08/01 08:25:00;;;;;;;6.15;2.40;;;27.90;96.60;;;;;;5050059;28;20032;-75
2022/08/01 08:27:26;;;;;;;5.47;2.30;;;27.90;97.20;;;;;;5037977;28;20029;-74
2022/08/01 08:29:52;;;;;;;6.85;2.20;;;27.90;97.90;;;;;;5048801;28;20037;-74
2022/08/01 08:32:17;;;;;;;2.92;2.47;;;27.90;98.70;;;;;;5047917;28;20041;-73
2022/08/01 08:34:43;;;;;;;2.75;2.10;;;27.80;99.40;;;;;;5033474;28;20106;-74
2022/08/01 08:37:09;;;;;;;8.23;2.50;;;27.80;99.50;;;;;;5036568;28;20484;-75
2022/08/01 08:39:35;;;;;;;4.07;2.10;;;27.80;99.90;;;;;;5046494;28;20041;-74
2022/08/01 08:42:05;;;;;;;4.32;2.10;;;27.80;99.90;;;;;;5043294;28;20032;-74
2022/08/01 08:44:31;;;;;;;7.75;2.20;;;27.80;99.90;;;;;;5045891;28;20021;-74
2022/08/01 08:47:00;;;;;;;5.55;2.50;;;27.90;99.90;;;;;;5045300;28;20563;-74
2022/08/01 08:49:28;;;;;;;6.03;2.42;;;27.90;99.90;;;;;;5044986;28;20446;-75
2022/08/01 08:51:58;;;;;;;2.47;2.17;;;27.90;99.90;;;;;;5044994;28;20064;-74
2022/08/01 08:54:25;;;;;;;4.85;2.17;;;28.00;99.40;;;;;;5037369;28;20028;-74
2022/08/01 08:56:55;;;;;;;51.15;4.63;;;28.00;99.90;;;;;;5038763;28;20029;-74
2022/08/01 08:59:21;;;;;;;6.45;2.70;;;28.00;99.90;;;;;;5044337;28;20371;-75
2022/08/01 09:01:47;;;;;;;29.45;2.90;;;28.10;99.90;;;;;;5047258;28;20032;-74
2022/08/01 09:04:14;;;;;;;4.13;2.58;;;28.20;99.90;;;;;;5038795;28;20026;-74
2022/08/01 09:06:40;;;;;;;6.45;2.40;;;28.20;99.90;;;;;;5036025;28;20048;-75
2022/08/01 09:09:07;;;;;;;3.75;2.22;;;28.20;99.90;;;;;;5033545;28;20060;-74
2022/08/01 09:11:34;;;;;;;6.82;2.80;;;28.30;99.90;;;;;;5047445;28;20067;-74
2022/08/01 09:14:14;;;;;;;7.45;2.67;;;28.30;98.10;;;;;;5040729;28;20017;-75
2022/08/01 09:16:43;;;;;;;5.25;2.40;;;28.40;99.90;;;;;;5047357;28;20033;-74
2022/08/01 09:19:17;;;;;;;15.57;2.67;;;28.40;99.70;;;;;;5034261;28;20017;-74
2022/08/01 09:21:55;;;;;;;2.45;2.00;;;28.50;99.90;;;;;;5046750;28;20056;-74
2022/08/01 09:24:21;;;;;;;2.42;2.00;;;28.50;99.30;;;;;;5044265;28;20021;-74
2022/08/01 09:26:48;;;;;;;6.32;2.78;;;28.60;99.90;;;;;;5040503;28;20507;-74
2022/08/01 09:29:25;;;;;;;7.30;2.63;;;28.50;99.90;;;;;;5038467;28;20028;-74
2022/08/01 09:31:51;;;;;;;4.05;2.40;;;28.60;99.90;;;;;;5037789;28;20048;-75
2022/08/01 09:34:25;;;;;;;4.68;2.30;;;28.60;99.90;;;;;;5050527;28;20070;-73
2022/08/01 09:36:59;;;;;;;5.97;2.45;;;28.60;99.90;;;;;;5044421;28;20523;-74
2022/08/01 09:39:26;;;;;;;13.73;2.60;;;28.60;99.90;;;;;;5043134;28;20048;-73
2022/08/01 09:41:57;;;;;;;7.68;2.35;;;28.70;99.90;;;;;;5045276;28;20036;-73
2022/08/01 09:44:45;;;;;;;4.93;2.40;;;28.70;99.50;;;;;;5044088;28;20190;-74
2022/08/01 09:47:12;;;;;;;11.02;2.72;;;28.80;99.90;;;;;;5042783;28;20061;-74
2022/08/01 09:49:39;;;;;;;4.95;2.83;;;28.80;99.70;;;;;;5046011;28;20029;-74
2022/08/01 09:52:11;;;;;;;2.40;2.20;;;28.80;99.90;;;;;;5042380;28;20045;-73
2022/08/01 09:54:37;;;;;;;;;;;28.80;99.90;;;;;;5047766;28;20052;-74
2022/08/01 09:57:14;;;;;;;5.32;2.88;;;28.80;99.90;;;;;;5042727;28;19913;-74
2022/08/01 09:59:44;;;;;;;6.30;2.97;;;28.70;99.90;;;;;;5038076;28;20026;-73
2022/08/01 10:02:15;;;;;;;4.47;2.38;;;28.80;99.90;;;;;;5043995;28;20029;-73
2022/08/01 10:04:51;;;;;;;2.78;2.58;;;28.70;99.80;;;;;;5038129;28;20152;-74
2022/08/01 10:07:17;;;;;;;7.18;3.80;;;28.60;99.60;;;;;;5039566;28;20025;-75
2022/08/01 10:09:44;;;;;;;3.60;2.58;;;28.60;98.60;;;;;;5050344;28;20036;-74
2022/08/01 10:12:12;;;;;;;3.90;2.38;;;28.60;99.50;;;;;;5046642;28;20025;-74
2022/08/01 10:14:40;;;;;;;3.35;2.97;;;28.60;99.60;;;;;;5049682;28;20383;-74
2022/08/01 10:17:09;;;;;;;3.72;2.90;;;28.40;99.90;;;;;;5046569;28;20056;-74
2022/08/01 10:19:37;;;;;;;2.65;2.42;;;28.40;99.90;;;;;;5048916;28;20499;-75
2022/08/01 10:22:07;;;;;;;2.42;2.20;;;28.30;99.90;;;;;;5047142;28;20033;-75
2022/08/01 10:24:38;;;;;;;3.85;2.47;;;28.40;99.90;;;;;;5047230;28;20029;-75
2022/08/01 10:27:08;;;;;;;6.20;2.65;;;28.50;99.90;;;;;;5043156;28;20111;-75
2022/08/01 10:29:49;;;;;;;4.75;2.47;;;28.60;99.90;;;;;;5048835;28;20053;-73
2022/08/01 10:32:17;;;;;;;3.92;2.42;;;28.50;99.90;;;;;;5047273;28;20510;-74
2022/08/01 10:34:43;;;;;;;6.18;2.75;;;28.50;99.90;;;;;;5035790;28;20052;-74
2022/08/01 10:37:09;;;;;;;3.95;2.33;;;28.50;99.90;;;;;;5038913;28;20112;-74
2022/08/01 10:39:35;;;;;;;5.10;2.70;;;28.50;99.90;;;;;;5048808;28;20049;-74
2022/08/01 10:42:02;;;;;;;4.45;2.60;;;28.70;99.90;;;;;;5043034;28;20480;-74
2022/08/01 10:44:30;;;;;;;2.83;2.38;;;28.80;99.90;;;;;;5047574;28;20029;-74
2022/08/01 10:47:03;;;;;;;5.50;2.42;;;28.80;99.90;;;;;;5047827;28;20423;-75
2022/08/01 10:49:34;;;;;;;5.30;2.75;;;28.80;99.90;;;;;;5046412;28;20021;-75
2022/08/01 10:52:00;;;;;;;3.30;2.67;;;28.70;99.90;;;;;;5045914;28;20037;-75
2022/08/01 10:54:26;;;;;;;7.25;3.60;;;28.70;99.90;;;;;;5047243;28;20279;-75
2022/08/01 10:56:52;;;;;;;3.63;3.05;;;28.50;99.90;;;;;;5044349;28;20586;-75
2022/08/01 10:59:24;;;;;;;4.68;3.17;;;28.40;99.90;;;;;;5046118;28;20379;-74
2022/08/01 11:01:58;;;;;;;4.15;3.15;;;28.40;99.90;;;;;;5049419;28;20025;-74
2022/08/01 11:04:41;;;;;;;3.60;3.25;;;28.50;99.90;;;;;;5039099;28;20021;-74
2022/08/01 11:07:15;;;;;;;6.90;3.70;;;28.50;99.90;;;;;;5036691;28;20035;-75
2022/08/01 11:10:03;;;;;;;4.47;3.47;;;28.40;99.90;;;;;;5040552;28;20392;-74
2022/08/01 11:12:40;;;;;;;7.05;3.38;;;28.40;99.90;;;;;;5038122;28;20048;-74
2022/08/01 11:15:07;;;;;;;6.78;3.33;;;28.30;99.90;;;;;;5050935;28;20120;-79
2022/08/01 11:17:48;;;;;;;4.10;3.03;;;28.20;99.90;;;;;;5042260;28;20037;-74
2022/08/01 11:20:32;;;;;;;4.77;2.80;;;28.10;99.90;;;;;;5013047;28;20481;-73
2022/08/01 11:23:01;;;;;;;7.25;3.20;;;28.10;99.90;;;;;;5046368;28;20470;-77
2022/08/01 11:25:33;;;;;;;3.63;2.40;;;28.30;99.90;;;;;;5032609;28;20110;-74
2022/08/01 11:28:17;;;;;;;;;;;28.40;99.90;;;;;;5040262;28;20021;-75
2022/08/01 11:30:51;;;;;;;2.80;2.45;;;28.50;99.90;;;;;;5051517;28;19923;-76
2022/08/01 11:33:37;;;;;;;2.85;2.42;;;28.50;99.90;;;;;;5056953;28;20117;-74
2022/08/01 11:36:12;;;;;;;22.70;10.68;;;28.50;99.90;;;;;;5017112;28;20033;-74
2022/08/01 11:38:44;;;;;;;3.17;2.80;;;28.50;99.90;;;;;;5037493;28;20046;-76
2022/08/01 11:41:17;;;;;;;7.93;4.10;;;28.50;99.90;;;;;;5031977;28;20025;-74
2022/08/01 11:44:05;;;;;;;56.58;31.67;;;28.50;99.90;;;;;;5044117;28;20499;-74
2022/08/01 11:46:55;;;;;;;16.10;9.57;;;28.50;99.90;;;;;;5036235;28;20711;-76
2022/08/01 11:49:33;;;;;;;65.13;33.50;;;28.50;99.90;;;;;;5038797;28;20380;-75
2022/08/01 11:52:01;;;;;;;10.43;6.25;;;28.60;99.90;;;;;;5046118;28;20037;-74
2022/08/01 11:54:32;;;;;;;9.95;4.28;;;28.70;99.90;;;;;;5046095;28;20029;-75
2022/08/01 11:57:00;;;;;;;5.50;2.23;;;28.70;99.90;;;;;;5042270;28;20272;-75
2022/08/01 11:59:26;;;;;;;6.07;3.58;;;28.80;99.90;;;;;;5044600;28;20025;-74
2022/08/01 12:01:53;;;;;;;20.45;5.88;;;28.80;99.90;;;;;;5047337;28;20386;-74
2022/08/01 12:04:19;;;;;;;4.70;3.10;;;28.70;99.90;;;;;;5039056;28;20028;-74
2022/08/01 12:06:45;;;;;;;15.15;8.15;;;28.80;99.90;;;;;;5037272;28;20052;-73
2022/08/01 12:09:21;;;;;;;9.38;4.32;;;28.80;99.90;;;;;;5031906;28;20056;-73
2022/08/01 12:11:48;;;;;;;3.13;2.40;;;29.10;99.90;;;;;;5037034;28;20044;-73
2022/08/01 12:14:20;;;;;;;5.72;2.17;;;29.90;99.90;;;;;;5042173;28;20384;-76
2022/08/01 12:16:52;;;;;;;3.67;2.72;;;31.20;99.90;;;;;;5034897;28;20364;-75
2022/08/01 12:19:22;;;;;;;4.55;1.90;;;32.40;99.30;;;;;;5044381;28;20029;-74
2022/08/01 12:22:09;;;;;;;3.10;2.10;;;33.50;97.60;;;;;;5047056;28;20028;-75
2022/08/01 12:24:36;;;;;;;5.00;1.65;;;34.70;97.70;;;;;;5046014;28;20033;-76
2022/08/01 12:27:03;;;;;;;10.55;2.35;;;35.70;92.30;;;;;;5041421;28;20029;-74
2022/08/01 12:29:45;;;;;;;3.10;1.60;;;35.90;93.00;;;;;;5045599;28;20021;-76
2022/08/01 12:32:22;;;;;;;2.95;0.95;;;36.60;89.30;;;;;;5047743;28;20029;-76
2022/08/01 12:34:49;;;;;;;9.55;1.80;;;37.10;73.90;;;;;;5034276;28;20025;-74
2022/08/01 12:37:15;;;;;;;7.78;1.48;;;37.80;82.80;;;;;;5038455;28;20040;-76
2022/08/01 12:39:40;;;;;;;4.60;1.70;;;38.30;77.70;;;;;;5033974;28;20038;-76
2022/08/01 12:42:10;;;;;;;2.67;1.60;;;38.50;78.90;;;;;;5036732;28;20476;-76
2022/08/01 12:44:37;;;;;;;2.35;1.40;;;39.20;80.00;;;;;;5046379;28;20025;-78
2022/08/01 12:47:05;;;;;;;5.63;1.48;;;38.60;80.30;;;;;;5044583;28;20033;-75
2022/08/01 12:49:38;;;;;;;2.58;1.60;;;38.10;82.30;;;;;;5044471;28;20566;-76
2022/08/01 12:52:04;;;;;;;3.15;1.40;;;38.30;83.40;;;;;;5044496;28;20041;-75